Time;durP1;ratioP1;P1;durP2;ratioP2;P2;SDS_P1;SDS_P2;PMS_P1;PMS_P2;Temp;Humidity;BMP_temperature;BMP_pressure;BME280_temperature;BME280_humidity;BME280_pressure;Samples;Min_cycle;Max_cycle;Signal;HPM_P1;HPM_P2
2023/03/30 00:01:00;;;;;;;5.43;1.77;;;;;;;14.71;56.38;97975.75;7377369;19;19937;-79
2023/03/30 00:03:28;;;;;;;6.65;1.70;;;;;;;14.66;57.55;97981.63;7368146;19;19929;-81
2023/03/30 00:05:55;;;;;;;7.15;2.33;;;;;;;14.57;57.87;97990.78;7374411;19;19926;-81
2023/03/30 00:08:27;;;;;;;4.13;1.27;;;;;;;14.48;57.59;97982.06;7378497;19;19925;-80
2023/03/30 00:11:10;;;;;;;5.60;1.88;;;;;;;14.49;58.51;97978.38;7382556;19;19965;-80
2023/03/30 00:13:37;;;;;;;3.60;1.92;;;;;;;14.44;58.59;97986.13;7383313;19;19964;-79
2023/03/30 00:16:06;;;;;;;6.35;2.05;;;;;;;14.44;58.80;97985.28;7384266;19;20367;-79
2023/03/30 00:18:33;;;;;;;6.40;1.98;;;;;;;14.43;58.50;97984.47;7376069;19;21280;-80
2023/03/30 00:21:02;;;;;;;5.57;2.22;;;;;;;14.41;58.59;97978.50;7385578;19;19918;-80
2023/03/30 00:23:31;;;;;;;4.43;2.28;;;;;;;14.42;59.36;97979.34;7372161;19;19944;-81
2023/03/30 00:25:58;;;;;;;5.95;3.17;;;;;;;14.41;59.13;97975.03;7380610;19;20424;-80
2023/03/30 00:28:29;;;;;;;5.65;1.90;;;;;;;14.36;58.24;97966.78;7383935;19;19925;-80
2023/03/30 00:30:57;;;;;;;5.45;1.92;;;;;;;14.36;58.67;97972.13;7383179;19;20481;-80
2023/03/30 00:33:24;;;;;;;4.28;1.08;;;;;;;14.40;58.19;97968.91;7378365;19;19929;-80
2023/03/30 00:36:03;;;;;;;6.80;1.77;;;;;;;14.42;58.37;97960.69;7386553;19;20776;-79
2023/03/30 00:38:29;;;;;;;8.13;1.90;;;;;;;14.44;58.39;97954.19;7379215;19;19953;-81
2023/03/30 00:40:58;;;;;;;6.25;2.00;;;;;;;14.43;58.57;97955.19;7385046;19;19922;-80
2023/03/30 00:43:26;;;;;;;3.95;1.48;;;;;;;14.44;58.59;97954.19;7379891;19;19986;-80
2023/03/30 00:45:55;;;;;;;6.65;1.75;;;;;;;14.40;58.11;97939.63;7386160;19;19950;-79
2023/03/30 00:48:26;;;;;;;3.70;1.52;;;;;;;14.46;58.18;97930.88;7378273;19;19910;-80
2023/03/30 00:50:57;;;;;;;10.88;3.28;;;;;;;14.52;59.23;97929.28;7380389;19;20535;-80
2023/03/30 00:53:28;;;;;;;6.43;1.55;;;;;;;14.53;60.22;97922.94;7373771;19;19935;-81
2023/03/30 00:55:55;;;;;;;9.40;2.25;;;;;;;14.50;61.10;97920.66;7386040;19;19925;-80
2023/03/30 00:58:23;;;;;;;6.80;2.70;;;;;;;14.45;61.63;97920.41;7376842;19;20289;-80
2023/03/30 01:00:50;;;;;;;4.38;1.65;;;;;;;14.32;62.05;97926.41;7381957;19;19927;-80
2023/03/30 01:03:30;;;;;;;5.57;1.73;;;;;;;14.23;62.19;97919.59;7374936;19;20313;-80
2023/03/30 01:06:00;;;;;;;5.55;1.67;;;;;;;14.20;62.26;97904.84;7384133;19;20400;-80
2023/03/30 01:08:33;;;;;;;7.50;2.25;;;;;;;14.20;60.75;97894.19;7378855;19;20360;-80
2023/03/30 01:11:01;;;;;;;6.05;2.25;;;;;;;14.20;61.25;97909.34;7382955;19;19918;-81
2023/03/30 01:13:31;;;;;;;6.60;2.15;;;;;;;14.17;60.95;97902.56;7379935;19;20444;-80
2023/03/30 01:16:34;;;;;;;6.90;1.83;;;;;;;14.21;60.90;97893.16;7384626;19;20273;-79
2023/03/30 01:19:11;;;;;;;3.20;1.25;;;;;;;14.21;60.00;97903.81;7384436;19;19923;-80
2023/03/30 01:21:47;;;;;;;7.18;2.38;;;;;;;14.22;60.81;97897.50;7382605;19;20017;-80
2023/03/30 01:24:41;;;;;;;4.32;2.28;;;;;;;14.24;61.10;97890.16;7379986;19;19930;-80
2023/03/30 01:27:44;;;;;;;7.95;2.63;;;;;;;14.19;61.73;97889.91;7382202;19;19974;-79
2023/03/30 01:30:17;;;;;;;6.57;2.53;;;;;;;14.12;62.47;97896.16;7380864;19;19918;-79
2023/03/30 01:32:55;;;;;;;11.50;2.30;;;;;;;14.08;62.96;97901.03;7378187;19;19923;-79
2023/03/30 01:35:45;;;;;;;5.65;1.83;;;;;;;13.94;63.49;97925.84;7375585;19;19918;-80
2023/03/30 01:38:27;;;;;;;8.93;3.60;;;;;;;13.84;63.41;97937.59;7378443;19;19929;-80
2023/03/30 01:41:21;;;;;;;8.75;2.42;;;;;;;13.89;65.30;97942.34;7380202;19;19970;-79
2023/03/30 01:44:06;;;;;;;5.15;2.15;;;;;;;14.00;65.36;97935.72;7378149;19;19928;-79
2023/03/30 01:46:46;;;;;;;3.92;1.83;;;;;;;13.93;66.94;97930.34;7379023;19;19925;-79
2023/03/30 01:49:35;;;;;;;5.95;2.58;;;;;;;13.72;67.56;97922.34;7379386;19;19926;-79
2023/03/30 01:52:08;;;;;;;12.23;2.40;;;;;;;13.65;68.56;97908.13;7383979;19;20292;-80
2023/03/30 01:54:43;;;;;;;4.88;2.53;;;;;;;13.61;68.65;97900.53;7380130;19;19955;-79
2023/03/30 01:57:26;;;;;;;7.00;2.75;;;;;;;13.63;68.83;97903.00;7375646;19;20333;-79
2023/03/30 01:59:56;;;;;;;6.47;1.80;;;;;;;13.63;68.72;97912.81;7383861;19;19926;-80
2023/03/30 02:02:28;;;;;;;7.47;3.28;;;;;;;13.61;68.92;97924.47;7369706;19;19914;-79
2023/03/30 02:04:56;;;;;;;3.50;1.50;;;;;;;13.70;69.37;97921.69;7377916;19;19919;-79
2023/03/30 02:07:28;;;;;;;5.15;2.20;;;;;;;13.65;70.99;97932.88;7376482;19;19930;-79
2023/03/30 02:09:57;;;;;;;8.00;2.10;;;;;;;13.64;70.55;97933.03;7379301;19;19956;-80
2023/03/30 02:12:25;;;;;;;8.00;2.13;;;;;;;13.61;70.75;97921.81;7370623;19;19918;-79
2023/03/30 02:14:52;;;;;;;5.05;2.05;;;;;;;13.54;69.69;97918.22;7381015;19;19925;-79
2023/03/30 02:17:24;;;;;;;8.85;2.78;;;;;;;13.58;69.79;97931.97;7375801;19;19948;-80
2023/03/30 02:19:53;;;;;;;9.48;2.47;;;;;;;13.71;69.62;97918.81;7381493;19;19927;-79
2023/03/30 02:22:20;;;;;;;6.22;1.95;;;;;;;13.82;69.89;97921.03;7374968;19;19930;-80
2023/03/30 02:24:48;;;;;;;3.70;2.35;;;;;;;13.81;69.38;97921.19;7376809;19;19923;-79
2023/03/30 02:27:16;;;;;;;8.75;2.15;;;;;;;13.83;69.63;97927.16;7374032;19;19922;-79
2023/03/30 02:29:44;;;;;;;6.28;2.80;;;;;;;13.90;70.38;97930.72;7381259;19;19921;-79
2023/03/30 02:32:24;;;;;;;11.30;2.08;;;;;;;13.82;70.46;97946.75;7376481;19;20014;-80
2023/03/30 02:35:27;;;;;;;7.80;2.50;;;;;;;13.79;70.04;97934.66;7381886;19;19947;-79
2023/03/30 02:38:28;;;;;;;8.07;2.08;;;;;;;13.77;69.90;97931.41;7378280;19;20502;-79
2023/03/30 02:41:11;;;;;;;5.90;2.15;;;;;;;13.80;69.92;97931.00;7374570;19;19914;-79
2023/03/30 02:43:43;;;;;;;8.77;2.55;;;;;;;13.80;69.49;97939.00;7376498;19;19927;-80
2023/03/30 02:46:38;;;;;;;7.75;2.03;;;;;;;13.92;69.07;97934.00;7379207;19;19934;-79
2023/03/30 02:49:36;;;;;;;7.63;2.58;;;;;;;13.87;68.60;97928.41;7384937;19;19923;-80
2023/03/30 02:52:36;;;;;;;7.15;2.13;;;;;;;14.07;68.19;97925.97;7374788;19;20573;-79
2023/03/30 02:55:12;;;;;;;8.30;2.15;;;;;;;14.11;67.63;97929.06;7378839;19;19922;-80
2023/03/30 02:58:19;;;;;;;6.45;2.38;;;;;;;14.11;67.54;97924.56;7380177;19;19926;-79
2023/03/30 03:01:21;;;;;;;5.95;2.60;;;;;;;14.04;69.04;97932.50;7376314;19;20255;-80
2023/03/30 03:03:57;;;;;;;13.60;3.50;;;;;;;14.00;70.64;97930.41;7376786;19;21034;-80
2023/03/30 03:06:26;;;;;;;9.90;2.45;;;;;;;13.88;71.82;97924.75;7373336;19;19934;-79
2023/03/30 03:08:55;;;;;;;13.48;2.80;;;;;;;13.68;73.21;97918.38;7379652;19;19915;-79
2023/03/30 03:11:25;;;;;;;9.80;2.17;;;;;;;13.56;74.94;97926.84;7378995;19;19918;-80
2023/03/30 03:13:52;;;;;;;7.95;2.63;;;;;;;13.47;75.52;97893.41;7384324;19;19939;-79
2023/03/30 03:16:19;;;;;;;6.30;2.50;;;;;;;13.28;76.38;97886.00;7376109;19;19919;-80
2023/03/30 03:19:07;;;;;;;6.28;2.88;;;;;;;12.95;77.55;97883.69;7385628;19;19939;-79
2023/03/30 03:21:35;;;;;;;8.60;2.38;;;;;;;12.95;78.24;97896.97;7377666;19;20507;-80
2023/03/30 03:24:03;;;;;;;7.45;2.75;;;;;;;12.88;78.79;97899.53;7380824;19;19925;-81
2023/03/30 03:26:48;;;;;;;11.98;2.42;;;;;;;12.84;78.23;97892.94;7381974;19;20512;-77
2023/03/30 03:29:17;;;;;;;9.07;2.90;;;;;;;12.81;77.96;97882.69;7379541;19;19943;-81
2023/03/30 03:31:44;;;;;;;12.23;3.67;;;;;;;12.86;78.02;97871.53;7376760;19;19925;-80
2023/03/30 03:34:11;;;;;;;7.03;2.38;;;;;;;12.92;78.55;97882.22;7375928;19;19981;-81
2023/03/30 03:37:05;;;;;;;7.13;2.78;;;;;;;12.99;78.19;97886.81;7377679;19;19948;-80
2023/03/30 03:39:34;;;;;;;11.05;3.03;;;;;;;12.95;79.30;97873.91;7372270;19;19918;-79
2023/03/30 03:42:10;;;;;;;5.13;2.25;;;;;;;13.05;78.77;97870.97;7378699;19;19918;-81
2023/03/30 03:44:46;;;;;;;9.10;3.15;;;;;;;12.85;78.53;97869.84;7388514;19;19918;-80
2023/03/30 03:47:13;;;;;;;7.65;3.17;;;;;;;13.01;78.88;97859.06;7382793;19;19954;-81
2023/03/30 03:49:43;;;;;;;10.27;3.25;;;;;;;12.98;79.42;97854.13;7386873;19;20246;-80
2023/03/30 03:52:10;;;;;;;8.93;3.08;;;;;;;13.02;79.48;97849.28;7386300;19;19927;-80
2023/03/30 03:54:37;;;;;;;8.30;2.72;;;;;;;12.92;79.64;97853.00;7382249;19;19918;-80
2023/03/30 03:57:05;;;;;;;7.32;3.90;;;;;;;12.83;79.70;97851.47;7388546;19;19923;-81
2023/03/30 03:59:32;;;;;;;7.75;2.53;;;;;;;12.91;79.96;97861.19;7381474;19;19918;-80
2023/03/30 04:01:58;;;;;;;7.50;3.17;;;;;;;12.82;80.06;97873.72;7387206;19;20536;-79
2023/03/30 04:04:26;;;;;;;7.68;3.25;;;;;;;12.87;79.82;97881.13;7381415;19;19943;-81
2023/03/30 04:06:55;;;;;;;7.90;2.53;;;;;;;12.91;80.06;97863.84;7389738;19;19946;-80
2023/03/30 04:09:23;;;;;;;10.25;3.22;;;;;;;12.90;79.99;97862.16;7388146;19;19927;-82
2023/03/30 04:12:08;;;;;;;9.02;3.08;;;;;;;12.86;79.52;97864.38;7393465;19;19917;-81
2023/03/30 04:14:57;;;;;;;8.63;2.97;;;;;;;12.88;79.43;97850.94;7391145;19;19938;-81
2023/03/30 04:17:37;;;;;;;12.07;2.67;;;;;;;12.86;79.34;97840.47;7385765;19;19943;-81
2023/03/30 04:20:28;;;;;;;8.23;2.55;;;;;;;12.94;79.30;97835.06;7385430;19;19963;-80
2023/03/30 04:23:08;;;;;;;6.32;2.80;;;;;;;12.96;79.21;97826.94;7388507;19;19926;-80
2023/03/30 04:25:41;;;;;;;7.32;2.85;;;;;;;12.96;79.12;97821.63;7390166;19;20316;-81
2023/03/30 04:28:39;;;;;;;7.05;2.40;;;;;;;12.97;78.75;97807.34;7386782;19;19962;-80
2023/03/30 04:31:16;;;;;;;6.43;2.35;;;;;;;13.07;nan;97802.56;7392432;19;19922;-80
2023/03/30 04:34:12;;;;;;;12.65;4.38;;;;;;;13.16;79.05;97788.19;7392710;19;20784;-80
2023/03/30 04:37:17;;;;;;;5.78;2.22;;;;;;;13.18;79.06;97793.28;7403538;19;19950;-81
2023/03/30 04:40:09;;;;;;;6.80;2.95;;;;;;;13.18;79.62;97787.97;7402932;19;19920;-81
2023/03/30 04:43:02;;;;;;;11.70;3.50;;;;;;;13.16;79.36;97774.06;7403067;19;19922;-82
2023/03/30 04:45:55;;;;;;;8.77;2.42;;;;;;;13.22;79.26;97764.50;7405037;19;19919;-82
2023/03/30 04:48:48;;;;;;;5.78;3.90;;;;;;;13.15;79.22;97757.31;7403478;19;19915;-82
2023/03/30 04:51:33;;;;;;;5.85;2.80;;;;;;;13.06;78.47;97766.41;7396824;19;20577;-82
2023/03/30 04:54:16;;;;;;;13.45;3.22;;;;;;;13.12;78.73;97749.72;7399290;19;19964;-82
2023/03/30 04:56:42;;;;;;;6.53;2.50;;;;;;;13.20;79.02;97743.47;7396350;19;20331;-80
2023/03/30 04:59:30;;;;;;;10.00;3.15;;;;;;;13.24;78.91;97742.06;7395125;19;19915;-81
2023/03/30 05:02:09;;;;;;;8.55;2.80;;;;;;;13.23;78.79;97747.59;7398645;19;20356;-80
2023/03/30 05:04:46;;;;;;;4.75;2.00;;;;;;;13.20;78.67;97748.78;7398306;19;19921;-81
2023/03/30 05:07:31;;;;;;;10.38;2.65;;;;;;;13.16;79.55;97753.66;7400791;19;19941;-81
2023/03/30 05:10:07;;;;;;;8.85;3.17;;;;;;;13.13;79.14;97747.88;7390650;19;19954;-82
2023/03/30 05:13:09;;;;;;;7.55;2.58;;;;;;;13.13;79.34;97747.88;7390035;19;19911;-82
2023/03/30 05:15:53;;;;;;;8.38;2.58;;;;;;;13.03;78.93;97753.47;7395163;19;19923;-82
2023/03/30 05:18:43;;;;;;;7.60;2.58;;;;;;;13.07;78.44;97759.25;7387318;19;19915;-82
2023/03/30 05:21:39;;;;;;;7.63;3.58;;;;;;;13.10;78.47;97733.13;7393561;19;21244;-82
2023/03/30 05:24:33;;;;;;;10.43;2.58;;;;;;;13.20;78.68;97730.19;7389083;19;19914;-80
2023/03/30 05:27:14;;;;;;;10.07;4.05;;;;;;;13.21;78.58;97729.16;7385199;19;20146;-82
2023/03/30 05:29:59;;;;;;;7.15;2.30;;;;;;;13.19;78.53;97728.53;7386580;19;20353;-82
2023/03/30 05:32:51;;;;;;;9.85;3.65;;;;;;;13.16;78.64;97732.41;7386102;19;19925;-81
2023/03/30 05:35:27;;;;;;;5.50;2.28;;;;;;;13.18;79.15;97725.06;7386596;19;20294;-81
2023/03/30 05:38:10;;;;;;;16.02;3.28;;;;;;;13.26;nan;97725.94;7389091;19;19911;-81
2023/03/30 05:40:50;;;;;;;10.98;3.80;;;;;;;13.24;79.30;97720.81;7390900;19;19934;-79
2023/03/30 05:43:36;;;;;;;10.38;3.42;;;;;;;13.26;79.21;97712.66;7387212;19;21166;-81
2023/03/30 05:46:26;;;;;;;7.72;2.60;;;;;;;13.20;79.42;97713.44;7387947;19;20656;-82
2023/03/30 05:49:10;;;;;;;8.35;3.22;;;;;;;13.18;79.29;97708.31;7394535;19;19926;-80
2023/03/30 05:52:00;;;;;;;10.25;2.92;;;;;;;13.24;79.18;97701.41;7394261;19;19961;-80
2023/03/30 05:54:52;;;;;;;10.30;3.35;;;;;;;13.21;79.51;97699.13;7395763;19;20305;-81
2023/03/30 05:57:37;;;;;;;7.80;3.78;;;;;;;13.20;79.55;97710.78;7394672;19;19917;-80
2023/03/30 06:00:13;;;;;;;9.25;4.10;;;;;;;13.24;79.53;97722.66;7392058;19;20725;-80
2023/03/30 06:02:54;;;;;;;6.93;3.38;;;;;;;13.23;78.99;97724.50;7396159;19;19954;-79
2023/03/30 06:05:23;;;;;;;12.15;2.58;;;;;;;13.25;78.97;97742.91;7392427;19;19922;-81
2023/03/30 06:07:50;;;;;;;12.65;3.03;;;;;;;13.26;79.11;97742.75;7394761;19;19930;-81
2023/03/30 06:10:17;;;;;;;11.60;3.53;;;;;;;13.13;78.84;97766.47;7393266;19;20337;-80
2023/03/30 06:12:45;;;;;;;8.73;3.50;;;;;;;13.27;78.79;97765.66;7390145;19;19929;-81
2023/03/30 06:15:27;;;;;;;9.88;3.30;;;;;;;13.33;79.01;97783.50;7394218;19;20314;-82
2023/03/30 06:18:03;;;;;;;13.15;3.70;;;;;;;13.14;80.21;97797.34;7396097;19;20324;-83
2023/03/30 06:20:33;;;;;;;13.90;4.10;;;;;;;13.04;81.15;97826.03;7398268;19;19919;-82
2023/03/30 06:23:00;;;;;;;8.10;4.05;;;;;;;13.10;81.68;97831.41;7393974;19;19945;-82
2023/03/30 06:25:29;;;;;;;8.88;3.10;;;;;;;13.03;82.42;97841.09;7388825;19;20400;-83
2023/03/30 06:27:56;;;;;;;10.70;3.92;;;;;;;12.94;82.50;97844.88;7391025;19;20397;-83
2023/03/30 06:30:24;;;;;;;9.98;3.22;;;;;;;13.04;81.80;97837.47;7391531;19;22394;-84
2023/03/30 06:32:54;;;;;;;8.07;2.85;;;;;;;12.90;83.06;97849.75;7392165;19;19914;-83
2023/03/30 06:35:33;;;;;;;12.63;4.40;;;;;;;13.00;83.13;97853.94;7394617;19;19914;-82
2023/03/30 06:38:00;;;;;;;4.25;3.22;;;;;;;13.03;82.89;97846.41;7397217;19;20365;-83
2023/03/30 06:40:28;;;;;;;8.02;3.58;;;;;;;13.16;82.65;97846.63;7397294;19;19919;-81
2023/03/30 06:42:56;;;;;;;18.30;4.38;;;;;;;13.12;82.41;97863.09;7396860;19;19952;-81
2023/03/30 06:45:35;;;;;;;14.25;4.53;;;;;;;13.00;82.92;97880.50;7396427;19;19911;-83
2023/03/30 06:48:02;;;;;;;10.75;4.13;;;;;;;13.05;82.51;97894.88;7396270;19;19954;-82
2023/03/30 06:50:32;;;;;;;11.68;3.42;;;;;;;13.01;82.08;97882.97;7397347;19;19940;-83
2023/03/30 06:53:07;;;;;;;12.25;3.45;;;;;;;13.20;81.21;97883.44;7394982;19;20355;-82
2023/03/30 06:55:40;;;;;;;12.65;3.78;;;;;;;13.06;81.02;97895.69;7394051;19;22334;-82
2023/03/30 06:58:11;;;;;;;11.13;3.03;;;;;;;13.13;80.10;97908.03;7389124;19;19977;-84
2023/03/30 07:00:38;;;;;;;10.60;3.17;;;;;;;13.16;80.43;97918.34;7390369;19;19924;-84
2023/03/30 07:03:38;;;;;;;;;;;;;;;13.26;80.04;97922.53;7389227;19;19926;-85
2023/03/30 07:06:13;;;;;;;7.50;4.25;;;;;;;13.20;80.10;97924.09;7390172;19;19926;-83
2023/03/30 07:08:41;;;;;;;11.10;4.05;;;;;;;13.21;79.81;97927.56;7388609;19;19918;-82
2023/03/30 07:11:12;;;;;;;12.20;3.25;;;;;;;13.46;79.43;97947.56;7399438;19;19947;-84
2023/03/30 07:13:39;;;;;;;9.05;3.50;;;;;;;13.35;80.01;97950.69;7399086;19;19951;-83
2023/03/30 07:16:06;;;;;;;14.07;3.80;;;;;;;13.29;80.76;97951.41;7397673;19;19982;-84
2023/03/30 07:18:33;;;;;;;9.60;3.53;;;;;;;13.20;81.52;97952.50;7387910;19;19918;-85
2023/03/30 07:21:00;;;;;;;8.70;3.00;;;;;;;13.31;80.93;97954.72;7403531;19;19922;-84
2023/03/30 07:23:31;;;;;;;;;;;;;;;13.27;81.41;97948.09;7399153;19;19918;-83
2023/03/30 07:25:58;;;;;;;9.52;2.72;;;;;;;13.27;82.48;97969.34;7399663;19;19922;-86
2023/03/30 07:28:40;;;;;;;10.07;3.20;;;;;;;12.86;84.47;97969.75;7397582;19;19925;-87
2023/03/30 07:31:12;;;;;;;7.63;3.13;;;;;;;13.03;83.98;97981.84;7403151;19;20369;-87
2023/03/30 07:33:41;;;;;;;8.70;3.42;;;;;;;12.93;84.67;97982.13;7399665;19;20396;-86
2023/03/30 07:36:12;;;;;;;10.18;4.07;;;;;;;12.88;85.12;97997.78;7403955;19;19939;-86
2023/03/30 07:38:39;;;;;;;8.27;3.03;;;;;;;12.64;86.31;97998.81;7401339;19;20042;-87
2023/03/30 07:41:12;;;;;;;13.70;4.00;;;;;;;12.82;85.82;98000.31;7407507;19;19933;-86
2023/03/30 07:43:40;;;;;;;14.90;3.90;;;;;;;12.82;85.43;97979.91;7395546;19;19918;-88
2023/03/30 07:46:08;;;;;;;14.15;4.57;;;;;;;12.77;85.90;97963.69;7399385;19;19922;-89
2023/03/30 07:48:39;;;;;;;10.88;3.60;;;;;;;12.69;85.77;97969.91;7401129;19;19928;-88
2023/03/30 07:51:11;;;;;;;14.27;4.63;;;;;;;12.67;86.50;97961.28;7404696;19;19914;-89
2023/03/30 07:53:58;;;;;;;8.75;4.85;;;;;;;12.83;86.36;97954.19;7394732;19;20482;-85
2023/03/30 07:56:51;;;;;;;8.75;4.95;;;;;;;12.78;86.54;97960.03;7404439;19;21746;-85
2023/03/30 07:59:19;;;;;;;7.93;3.72;;;;;;;12.83;86.52;97956.84;7406417;19;19914;-84
2023/03/30 08:01:49;;;;;;;11.52;4.15;;;;;;;12.88;86.50;97959.78;7403150;19;20010;-84
2023/03/30 08:04:31;;;;;;;6.82;3.13;;;;;;;12.98;86.22;97963.00;7403682;19;19918;-84
2023/03/30 08:07:00;;;;;;;7.90;3.42;;;;;;;12.99;86.04;97955.84;7404791;19;19930;-84
2023/03/30 08:09:27;;;;;;;9.32;4.55;;;;;;;12.74;87.05;97988.78;7398079;19;19974;-84
2023/03/30 08:11:54;;;;;;;13.65;4.95;;;;;;;13.00;86.73;97968.13;7398549;19;20447;-82
2023/03/30 08:14:22;;;;;;;7.88;3.97;;;;;;;13.17;86.31;97981.06;7397323;19;19969;-83
2023/03/30 08:16:49;;;;;;;7.82;3.53;;;;;;;13.03;86.74;98003.09;7397479;19;19939;-83
2023/03/30 08:19:16;;;;;;;8.77;5.05;;;;;;;12.90;86.17;98026.78;7395567;19;20714;-82
2023/03/30 08:21:42;;;;;;;15.45;5.80;;;;;;;12.70;86.74;98040.53;7391101;19;19919;-82
2023/03/30 08:24:09;;;;;;;9.82;5.47;;;;;;;12.80;87.00;98039.50;7393771;19;20009;-82
2023/03/30 08:26:37;;;;;;;9.02;4.32;;;;;;;12.71;87.03;98044.84;7393568;19;20402;-84
2023/03/30 08:29:04;;;;;;;9.68;3.67;;;;;;;12.81;86.94;98049.09;7401005;19;19922;-83
2023/03/30 08:31:31;;;;;;;6.30;3.28;;;;;;;12.91;86.78;98052.34;7391501;19;19919;-82
2023/03/30 08:33:58;;;;;;;6.57;4.63;;;;;;;12.81;86.46;98051.75;7396737;19;20291;-82
2023/03/30 08:36:25;;;;;;;8.75;3.95;;;;;;;12.82;86.75;98033.00;7396334;19;19922;-82
2023/03/30 08:38:53;;;;;;;11.50;4.68;;;;;;;12.87;86.28;98029.78;7393044;19;19918;-83
2023/03/30 08:41:23;;;;;;;9.40;4.03;;;;;;;12.86;86.21;98012.22;7397457;19;19926;-82
2023/03/30 08:43:54;;;;;;;9.63;5.00;;;;;;;12.89;86.49;98010.03;7389320;19;19914;-81
2023/03/30 08:46:21;;;;;;;12.43;3.97;;;;;;;13.04;86.30;98004.75;7394168;19;19922;-82
2023/03/30 08:48:49;;;;;;;9.98;4.90;;;;;;;13.19;86.44;97972.88;7388183;19;19942;-83
2023/03/30 08:51:24;;;;;;;5.60;3.72;;;;;;;13.29;86.37;97960.19;7391306;19;20390;-83
2023/03/30 08:53:55;;;;;;;8.18;4.07;;;;;;;13.27;85.86;97972.00;7383053;19;19928;-84
2023/03/30 08:56:28;;;;;;;9.27;3.78;;;;;;;13.12;85.50;97983.44;7393406;19;19918;-82
2023/03/30 08:59:41;;;;;;;9.18;5.07;;;;;;;13.11;85.72;97970.31;7391966;19;19919;-82
2023/03/30 09:02:26;;;;;;;12.27;3.85;;;;;;;13.04;85.75;97964.09;7387274;19;19918;-82
2023/03/30 09:05:00;;;;;;;8.80;4.20;;;;;;;13.05;85.66;97949.81;7393586;19;20029;-83
2023/03/30 09:07:31;;;;;;;6.53;2.97;;;;;;;13.07;85.76;97945.97;7393117;19;19919;-83
2023/03/30 09:09:58;;;;;;;7.50;4.30;;;;;;;13.08;85.51;97957.41;7389521;19;19947;-82
2023/03/30 09:12:36;;;;;;;7.80;4.70;;;;;;;13.07;85.33;97951.28;7389442;19;19922;-81
2023/03/30 09:15:18;;;;;;;6.82;4.25;;;;;;;13.09;85.49;97936.00;7391084;19;20574;-81
2023/03/30 09:17:48;;;;;;;8.82;6.30;;;;;;;13.08;85.95;97939.63;7388837;19;19921;-81
2023/03/30 09:20:24;;;;;;;11.00;5.32;;;;;;;13.16;86.08;97952.00;7390880;19;19943;-81
2023/03/30 09:22:52;;;;;;;11.15;5.65;;;;;;;13.07;85.50;97966.41;7388370;19;19918;-82
2023/03/30 09:25:23;;;;;;;10.30;5.15;;;;;;;13.05;85.86;97966.56;7391231;19;20011;-81
2023/03/30 09:27:55;;;;;;;9.50;6.35;;;;;;;13.13;85.82;97960.34;7387975;19;21368;-80
2023/03/30 09:30:30;;;;;;;10.77;5.43;;;;;;;13.12;85.50;97959.53;7395179;19;20357;-80
2023/03/30 09:32:59;;;;;;;10.77;5.45;;;;;;;13.16;85.60;97967.94;7391159;19;19915;-82
2023/03/30 09:35:38;;;;;;;8.65;4.40;;;;;;;13.21;85.75;97954.94;7392237;19;20296;-80
2023/03/30 09:38:09;;;;;;;13.52;4.63;;;;;;;13.27;85.95;97956.06;7393734;19;20566;-80
2023/03/30 09:41:05;;;;;;;8.18;4.03;;;;;;;13.29;85.44;97959.38;7388687;19;20363;-80
2023/03/30 09:43:32;;;;;;;7.28;4.20;;;;;;;13.27;85.23;97972.00;7385302;19;19918;-81
2023/03/30 09:46:02;;;;;;;7.05;4.40;;;;;;;13.18;85.13;97982.69;7393440;19;19950;-80
2023/03/30 09:48:37;;;;;;;5.78;4.90;;;;;;;13.23;85.16;97984.00;7393840;19;19933;-81
2023/03/30 09:51:19;;;;;;;6.88;2.85;;;;;;;13.11;84.78;97983.59;7399137;19;19974;-81
2023/03/30 09:53:48;;;;;;;7.30;3.22;;;;;;;13.17;84.70;97990.88;7388420;19;19926;-81
2023/03/30 09:56:27;;;;;;;6.10;2.60;;;;;;;13.29;84.56;97993.91;7392185;19;19918;-82
2023/03/30 09:58:54;;;;;;;7.10;3.20;;;;;;;13.26;84.26;97997.75;7393415;19;19915;-83
2023/03/30 10:01:35;;;;;;;5.32;3.00;;;;;;;13.23;84.23;97991.97;7392887;19;19932;-81
2023/03/30 10:04:10;;;;;;;6.10;3.13;;;;;;;13.31;84.49;97997.22;7393602;19;19919;-81
2023/03/30 10:06:45;;;;;;;3.35;3.05;;;;;;;13.32;84.54;97998.84;7392366;19;19957;-81
2023/03/30 10:09:13;;;;;;;4.22;2.70;;;;;;;13.44;84.34;97999.25;7394294;19;20344;-82
2023/03/30 10:11:43;;;;;;;6.68;3.42;;;;;;;13.43;83.83;97994.91;7388319;19;19913;-81
2023/03/30 10:14:34;;;;;;;6.03;2.72;;;;;;;13.21;83.88;97989.47;7394769;19;20051;-82
2023/03/30 10:17:02;;;;;;;5.10;3.13;;;;;;;13.31;83.59;97992.72;7395605;19;19914;-81
2023/03/30 10:19:32;;;;;;;4.28;2.70;;;;;;;13.30;83.99;97996.41;7395001;19;19935;-81
2023/03/30 10:22:15;;;;;;;7.05;3.25;;;;;;;13.43;83.79;97987.81;7398385;19;19918;-81
2023/03/30 10:24:54;;;;;;;4.15;2.78;;;;;;;13.31;83.76;97991.91;7395212;19;19954;-82
2023/03/30 10:27:35;;;;;;;3.97;3.55;;;;;;;13.49;83.83;97984.41;7403240;19;19933;-83
2023/03/30 10:30:11;;;;;;;4.95;3.65;;;;;;;13.63;84.18;97984.56;7400729;19;19922;-82
2023/03/30 10:32:43;;;;;;;3.97;3.08;;;;;;;13.66;83.92;97977.03;7406590;19;20007;-81
2023/03/30 10:35:10;;;;;;;3.42;3.00;;;;;;;13.65;83.57;97967.44;7425907;19;19918;-82
2023/03/30 10:37:39;;;;;;;6.45;3.10;;;;;;;13.61;82.97;97969.66;7415556;19;19922;-82
2023/03/30 10:40:35;;;;;;;3.22;2.85;;;;;;;13.41;81.97;97959.75;7409126;19;19931;-82
2023/03/30 10:43:03;;;;;;;4.00;2.88;;;;;;;13.44;82.00;97946.09;7404083;19;19954;-81
2023/03/30 10:45:32;;;;;;;5.95;3.53;;;;;;;13.38;82.04;97951.13;7405593;19;19911;-83
2023/03/30 10:48:33;;;;;;;4.55;3.55;;;;;;;13.45;82.30;97945.91;7408782;19;19923;-82
2023/03/30 10:51:06;;;;;;;6.75;5.93;;;;;;;13.53;81.93;97950.28;7407093;19;20685;-82
2023/03/30 10:53:45;;;;;;;5.45;3.65;;;;;;;13.54;80.96;97944.00;7402570;19;19939;-83
2023/03/30 10:56:26;;;;;;;8.88;3.95;;;;;;;13.38;80.59;97942.34;7396721;19;19939;-82
2023/03/30 10:59:11;;;;;;;6.00;3.03;;;;;;;13.18;80.96;97942.84;7397331;19;22213;-83
2023/03/30 11:02:12;;;;;;;4.55;3.20;;;;;;;13.12;81.21;97940.94;7394292;19;20106;-83
2023/03/30 11:04:46;;;;;;;5.88;3.72;;;;;;;13.07;81.29;97931.88;7395398;19;19918;-81
2023/03/30 11:07:37;;;;;;;8.50;3.45;;;;;;;13.15;81.33;97929.94;7398108;19;19914;-82
2023/03/30 11:10:30;;;;;;;3.80;3.10;;;;;;;13.41;81.33;97935.84;7401439;19;19919;-83
2023/03/30 11:13:04;;;;;;;3.42;2.55;;;;;;;13.66;80.74;97939.00;7393770;19;20601;-81
2023/03/30 11:16:01;;;;;;;5.47;4.10;;;;;;;14.02;80.73;97939.84;7391863;19;19929;-83
2023/03/30 11:18:50;;;;;;;4.32;3.20;;;;;;;14.44;80.97;97945.38;7392945;19;19922;-82
2023/03/30 11:21:37;;;;;;;4.88;3.15;;;;;;;14.76;79.15;97952.03;7393822;19;19919;-83
2023/03/30 11:24:20;;;;;;;4.70;2.85;;;;;;;15.07;78.94;97956.16;7393331;19;19918;-84
2023/03/30 11:26:52;;;;;;;6.00;3.25;;;;;;;15.28;77.01;97961.41;7395338;19;19918;-83
2023/03/30 11:29:25;;;;;;;3.78;3.28;;;;;;;15.33;75.16;97958.16;7404047;19;19974;-83
2023/03/30 11:32:13;;;;;;;4.13;2.42;;;;;;;15.28;74.78;97949.94;7395272;19;19932;-83
2023/03/30 11:34:59;;;;;;;;;;;;;;;15.22;73.19;97943.56;7393543;19;19922;-83
2023/03/30 11:37:32;;;;;;;6.28;2.90;;;;;;;15.58;72.57;97950.50;7395966;19;19938;-83
2023/03/30 11:40:15;;;;;;;2.88;2.20;;;;;;;15.58;72.16;97959.31;7388981;19;19918;-83
2023/03/30 11:42:42;;;;;;;6.47;2.80;;;;;;;15.64;71.33;97964.88;7390921;19;19914;-83
2023/03/30 11:45:47;;;;;;;4.95;2.40;;;;;;;15.65;71.91;97967.34;7397253;19;19923;-83
2023/03/30 11:48:26;;;;;;;4.00;3.22;;;;;;;15.55;71.17;97966.88;7397831;19;20634;-82
2023/03/30 11:51:04;;;;;;;4.72;2.40;;;;;;;15.52;72.53;97967.28;7399636;19;19918;-83
2023/03/30 11:53:37;;;;;;;6.10;2.92;;;;;;;15.12;73.95;97953.72;7387209;19;19915;-82
2023/03/30 11:56:06;;;;;;;5.32;2.65;;;;;;;15.22;74.39;97962.19;7395303;19;19915;-83
2023/03/30 11:58:41;;;;;;;3.88;2.60;;;;;;;15.46;74.75;97962.75;7396503;19;19922;-82
2023/03/30 12:01:30;;;;;;;2.92;2.10;;;;;;;15.39;73.53;97960.03;7391496;19;19936;-83
2023/03/30 12:04:08;;;;;;;5.93;2.53;;;;;;;15.26;73.76;97958.09;7387571;19;20322;-83
2023/03/30 12:06:38;;;;;;;3.83;1.90;;;;;;;15.05;74.61;97966.16;7395416;19;19926;-83
2023/03/30 12:09:18;;;;;;;6.25;2.80;;;;;;;15.10;74.71;97963.75;7399468;19;19974;-82
2023/03/30 12:11:55;;;;;;;8.82;2.80;;;;;;;15.00;75.48;97969.41;7402918;19;19918;-83
2023/03/30 12:14:32;;;;;;;5.22;2.30;;;;;;;14.79;74.56;97964.13;7396232;19;20492;-84